Time;durP1;ratioP1;P1;durP2;ratioP2;P2;SDS_P1;SDS_P2;PMS_P1;PMS_P2;Temp;Humidity;BMP_temperature;BMP_pressure;BME280_temperature;BME280_humidity;BME280_pressure;Samples;Min_cycle;Max_cycle;Signal;HPM_P1;HPM_P2
2022/06/09 00:00:31;;;;;;;22.30;8.05;;;;;;;15.49;100.00;100436.81;5061160;28;20056;-73
2022/06/09 00:03:03;;;;;;;19.90;7.47;;;;;;;15.48;100.00;100442.06;5054604;28;20051;-72
2022/06/09 00:05:31;;;;;;;22.55;9.48;;;;;;;15.52;100.00;100435.94;5060708;28;20147;-72
2022/06/09 00:08:02;;;;;;;21.85;9.30;;;;;;;15.52;100.00;100443.50;5057592;28;20064;-75
2022/06/09 00:10:37;;;;;;;21.02;8.88;;;;;;;15.47;100.00;100449.63;5046919;28;20102;-75
2022/06/09 00:13:04;;;;;;;19.77;7.15;;;;;;;15.45;100.00;100455.63;5058328;28;20045;-74
2022/06/09 00:15:32;;;;;;;25.75;8.82;;;;;;;15.51;100.00;100453.09;5062645;28;20053;-74
2022/06/09 00:17:58;;;;;;;12.27;4.20;;;;;;;15.48;100.00;100454.78;5060561;28;20049;-72
2022/06/09 00:20:25;;;;;;;22.27;7.35;;;;;;;15.52;100.00;100460.25;5057831;28;20056;-74
2022/06/09 00:22:52;;;;;;;12.23;3.40;;;;;;;15.52;100.00;100453.91;5058600;28;20124;-73
2022/06/09 00:25:19;;;;;;;22.60;8.05;;;;;;;15.54;100.00;100455.03;5055799;28;20052;-73
2022/06/09 00:27:45;;;;;;;18.83;7.13;;;;;;;15.50;100.00;100451.53;5055240;28;20053;-73
2022/06/09 00:30:14;;;;;;;23.33;9.73;;;;;;;15.56;100.00;100460.97;5058225;28;20128;-73
2022/06/09 00:32:41;;;;;;;18.95;7.80;;;;;;;15.53;100.00;100464.63;5052887;28;20059;-72
2022/06/09 00:35:08;;;;;;;13.55;5.70;;;;;;;15.49;100.00;100461.09;5051980;28;20765;-72
2022/06/09 00:37:35;;;;;;;24.05;8.82;;;;;;;15.52;100.00;100474.97;5063249;28;20512;-73
2022/06/09 00:40:08;;;;;;;23.83;8.88;;;;;;;15.44;100.00;100467.22;5053326;28;20225;-72
2022/06/09 00:42:35;;;;;;;10.55;3.00;;;;;;;15.36;100.00;100471.41;5059338;28;20049;-72
2022/06/09 00:45:26;;;;;;;9.15;2.70;;;;;;;15.40;100.00;100472.88;5054122;28;20060;-73
2022/06/09 00:48:17;;;;;;;21.13;7.72;;;;;;;15.44;100.00;100472.81;5048283;28;20163;-73
2022/06/09 00:50:44;;;;;;;20.92;7.90;;;;;;;15.41;100.00;100474.47;5051391;28;20131;-73
2022/06/09 00:53:17;;;;;;;20.52;6.20;;;;;;;15.45;100.00;100485.50;5059721;28;20227;-73
2022/06/09 00:55:44;;;;;;;20.48;8.63;;;;;;;15.46;100.00;100481.53;5055432;28;20089;-73
2022/06/09 00:58:21;;;;;;;35.95;8.32;;;;;;;15.47;100.00;100480.31;5064124;28;20044;-75
2022/06/09 01:00:52;;;;;;;19.77;7.20;;;;;;;15.48;100.00;100495.03;5058970;28;20136;-74
2022/06/09 01:03:24;;;;;;;25.08;7.25;;;;;;;15.52;100.00;100487.34;5058752;28;20051;-73
2022/06/09 01:06:01;;;;;;;29.05;9.38;;;;;;;15.57;100.00;100491.16;5058553;28;20044;-73
2022/06/09 01:08:30;;;;;;;19.50;5.47;;;;;;;15.48;100.00;100489.47;5061653;28;20509;-73
2022/06/09 01:10:57;;;;;;;12.52;5.38;;;;;;;15.49;100.00;100489.00;5065770;28;20143;-75
2022/06/09 01:13:24;;;;;;;19.30;7.95;;;;;;;15.52;100.00;100500.06;5065592;28;20052;-74
2022/06/09 01:15:58;;;;;;;27.08;8.60;;;;;;;15.53;100.00;100501.63;5066305;28;20373;-72
2022/06/09 01:18:47;;;;;;;22.00;7.93;;;;;;;15.55;100.00;100506.78;5057997;28;20062;-73
2022/06/09 01:21:23;;;;;;;30.05;9.07;;;;;;;15.52;100.00;100505.66;5054593;28;20076;-73
2022/06/09 01:24:07;;;;;;;23.85;7.72;;;;;;;15.49;100.00;100506.50;5051483;28;20662;-73
2022/06/09 01:26:33;;;;;;;26.63;7.43;;;;;;;15.50;100.00;100519.22;5061833;28;20052;-75
2022/06/09 01:29:38;;;;;;;21.02;6.90;;;;;;;15.49;100.00;100512.09;5055933;28;20032;-74
2022/06/09 01:32:09;;;;;;;23.73;6.75;;;;;;;15.52;100.00;100518.03;5054380;28;20052;-73
2022/06/09 01:34:46;;;;;;;20.45;7.68;;;;;;;15.52;100.00;100512.44;5062855;28;20148;-76
2022/06/09 01:37:25;;;;;;;21.55;7.05;;;;;;;15.48;100.00;100513.31;5062622;28;20135;-74
2022/06/09 01:40:00;;;;;;;17.75;6.72;;;;;;;15.52;100.00;100524.38;5061599;28;20041;-72
2022/06/09 01:42:29;;;;;;;17.95;6.50;;;;;;;15.53;100.00;100526.72;5061622;28;20048;-73
2022/06/09 01:45:09;;;;;;;24.98;6.53;;;;;;;15.48;100.00;100523.69;5064735;28;20131;-73
2022/06/09 01:48:18;;;;;;;21.73;5.70;;;;;;;15.44;100.00;100526.56;5065821;28;20713;-73
2022/06/09 01:50:54;;;;;;;19.92;6.10;;;;;;;15.49;100.00;100517.66;5007129;28;20542;-73
2022/06/09 01:53:30;;;;;;;20.20;5.85;;;;;;;15.47;100.00;100524.91;5006608;28;20084;-74
2022/06/09 01:56:06;;;;;;;17.90;6.10;;;;;;;15.53;100.00;100520.38;5015141;28;20397;-74
2022/06/09 01:58:56;;;;;;;21.48;6.38;;;;;;;15.50;100.00;100530.38;5006282;28;20193;-74
2022/06/09 02:01:30;;;;;;;14.77;5.60;;;;;;;15.52;100.00;100525.16;5018996;28;20059;-73
2022/06/09 02:03:59;;;;;;;21.35;6.40;;;;;;;15.53;100.00;100529.53;5022369;28;20530;-74
2022/06/09 02:06:27;;;;;;;17.65;5.43;;;;;;;15.48;100.00;100532.03;5011961;28;20081;-75
2022/06/09 02:08:54;;;;;;;19.55;5.85;;;;;;;15.50;100.00;100529.63;5015145;28;20148;-73
2022/06/09 02:11:21;;;;;;;18.10;6.03;;;;;;;15.55;100.00;100534.66;5017903;28;20108;-74
2022/06/09 02:13:50;;;;;;;22.40;6.72;;;;;;;15.55;100.00;100525.53;5014615;28;20054;-73
2022/06/09 02:16:21;;;;;;;20.05;6.78;;;;;;;15.52;100.00;100537.56;5009718;28;20072;-75
2022/06/09 02:18:52;;;;;;;15.57;5.50;;;;;;;15.44;100.00;100545.28;5016175;28;20061;-73
2022/06/09 02:21:24;;;;;;;17.42;5.45;;;;;;;15.43;100.00;100541.72;5038375;28;20142;-72
2022/06/09 02:23:52;;;;;;;18.15;5.07;;;;;;;15.42;100.00;100540.16;5055561;28;20080;-73
2022/06/09 02:26:20;;;;;;;12.98;4.45;;;;;;;15.35;100.00;100540.28;5058228;28;20075;-76
2022/06/09 02:28:50;;;;;;;6.25;2.47;;;;;;;15.30;100.00;100559.53;5062157;28;20080;-73
2022/06/09 02:31:18;;;;;;;17.60;5.63;;;;;;;15.37;100.00;100551.03;5063942;28;20087;-73
2022/06/09 02:33:45;;;;;;;22.30;7.07;;;;;;;15.44;100.00;100557.25;5062706;28;20125;-73
2022/06/09 02:36:12;;;;;;;18.38;4.68;;;;;;;15.35;100.00;100572.94;5062484;28;20128;-73
2022/06/09 02:38:39;;;;;;;19.48;6.40;;;;;;;15.38;100.00;100575.69;5065140;28;20127;-74
2022/06/09 02:41:06;;;;;;;23.23;6.50;;;;;;;15.40;100.00;100575.25;5058875;28;20052;-73
2022/06/09 02:43:33;;;;;;;15.65;4.97;;;;;;;15.32;100.00;100580.19;5060637;28;20135;-73
2022/06/09 02:46:01;;;;;;;15.30;5.20;;;;;;;15.34;100.00;100574.16;5049153;28;20084;-76
2022/06/09 02:48:28;;;;;;;22.20;6.13;;;;;;;15.37;100.00;100576.91;5057124;28;20060;-73
2022/06/09 02:50:54;;;;;;;19.10;5.40;;;;;;;15.31;100.00;100573.03;5065401;28;20147;-74
2022/06/09 02:53:23;;;;;;;15.73;3.42;;;;;;;15.28;100.00;100568.31;5048225;28;20534;-73
2022/06/09 02:55:50;;;;;;;16.63;5.45;;;;;;;15.30;100.00;100565.09;5060544;28;20055;-73
2022/06/09 02:58:17;;;;;;;24.35;6.13;;;;;;;15.29;100.00;100564.31;5064535;28;20135;-73
2022/06/09 03:00:43;;;;;;;10.32;2.60;;;;;;;15.19;100.00;100564.56;5064763;28;20060;-73
2022/06/09 03:03:14;;;;;;;19.05;5.72;;;;;;;15.15;100.00;100569.41;5063298;28;20048;-73
2022/06/09 03:05:42;;;;;;;20.67;5.80;;;;;;;15.23;100.00;100576.41;5065831;28;20424;-73
2022/06/09 03:08:09;;;;;;;16.65;4.57;;;;;;;15.21;100.00;100576.84;5060299;28;20132;-74
2022/06/09 03:10:37;;;;;;;21.15;6.35;;;;;;;15.19;100.00;100572.94;5046901;28;20492;-74
2022/06/09 03:13:04;;;;;;;22.58;5.60;;;;;;;15.21;100.00;100579.63;5044895;28;20057;-74
2022/06/09 03:15:32;;;;;;;20.92;5.18;;;;;;;15.15;100.00;100573.00;5058933;28;20048;-73
2022/06/09 03:17:59;;;;;;;22.23;6.43;;;;;;;15.14;100.00;100574.22;5059718;28;20071;-76
2022/06/09 03:20:28;;;;;;;12.00;2.42;;;;;;;15.09;100.00;100585.84;5063056;28;20058;-72
2022/06/09 03:22:55;;;;;;;9.45;3.10;;;;;;;15.12;100.00;100581.44;5061831;28;20075;-73
2022/06/09 03:25:21;;;;;;;17.17;5.03;;;;;;;15.11;100.00;100589.00;5054881;28;20128;-73
2022/06/09 03:27:48;;;;;;;3.10;1.38;;;;;;;15.06;100.00;100589.50;5064441;28;20131;-73
2022/06/09 03:30:16;;;;;;;29.60;6.88;;;;;;;15.12;100.00;100585.00;5062568;28;20076;-75
2022/06/09 03:32:43;;;;;;;5.35;2.42;;;;;;;14.95;100.00;100586.16;5055821;28;20079;-74
2022/06/09 03:35:10;;;;;;;15.10;5.38;;;;;;;15.07;100.00;100590.28;5061701;28;20050;-75
2022/06/09 03:37:37;;;;;;;17.70;5.70;;;;;;;14.98;100.00;100585.31;5053224;28;20504;-74
2022/06/09 03:40:05;;;;;;;16.13;5.40;;;;;;;14.96;100.00;100596.09;5058758;28;20044;-75
2022/06/09 03:42:31;;;;;;;15.68;4.07;;;;;;;14.93;100.00;100585.81;5055539;28;20048;-74
2022/06/09 03:44:58;;;;;;;17.73;5.07;;;;;;;14.97;100.00;100597.69;5057569;28;20060;-75
2022/06/09 03:47:25;;;;;;;22.58;8.00;;;;;;;15.03;100.00;100595.97;5058058;28;20044;-73
2022/06/09 03:49:51;;;;;;;24.20;5.75;;;;;;;14.96;100.00;100598.88;5058670;28;20044;-72
2022/06/09 03:52:18;;;;;;;15.32;3.35;;;;;;;14.85;100.00;100605.91;5063580;28;20482;-74
2022/06/09 03:54:44;;;;;;;9.85;3.63;;;;;;;14.75;100.00;100613.22;5060879;28;20112;-72
2022/06/09 03:57:11;;;;;;;7.85;2.35;;;;;;;14.83;100.00;100613.88;5054199;28;20073;-73
2022/06/09 03:59:38;;;;;;;13.18;3.95;;;;;;;14.80;100.00;100612.75;5052987;28;20095;-74
2022/06/09 04:02:08;;;;;;;19.85;7.03;;;;;;;14.84;100.00;100626.59;5054834;28;20135;-72
2022/06/09 04:04:34;;;;;;;17.80;4.20;;;;;;;14.74;100.00;100617.25;5049754;28;20120;-72
2022/06/09 04:07:01;;;;;;;15.90;3.03;;;;;;;14.74;100.00;100628.38;5064451;28;20505;-72
2022/06/09 04:09:28;;;;;;;19.90;7.03;;;;;;;14.79;100.00;100635.47;5045863;28;20061;-73
2022/06/09 04:11:54;;;;;;;16.40;5.40;;;;;;;14.80;100.00;100621.09;5079662;28;20092;-74
2022/06/09 04:14:21;;;;;;;23.65;8.13;;;;;;;14.80;100.00;100634.22;5051261;28;20059;-72
2022/06/09 04:16:47;;;;;;;22.50;8.68;;;;;;;14.86;100.00;100636.13;5064885;28;20048;-73
2022/06/09 04:19:17;;;;;;;32.47;9.65;;;;;;;14.88;100.00;100633.66;5062146;28;20825;-72
2022/06/09 04:21:44;;;;;;;33.55;11.95;;;;;;;14.90;100.00;100642.41;5062063;28;20131;-73
2022/06/09 04:24:11;;;;;;;4.47;2.20;;;;;;;14.80;100.00;100639.81;5057842;28;20509;-75
2022/06/09 04:26:40;;;;;;;23.35;9.32;;;;;;;14.83;100.00;100655.66;5057684;28;20064;-75
2022/06/09 04:29:11;;;;;;;27.40;8.93;;;;;;;14.88;100.00;100652.38;5055172;28;20055;-73
2022/06/09 04:31:39;;;;;;;27.73;9.35;;;;;;;14.87;100.00;100654.41;5060577;28;20056;-72
2022/06/09 04:34:06;;;;;;;22.83;9.25;;;;;;;14.88;100.00;100663.50;5061324;28;20056;-73
2022/06/09 04:36:33;;;;;;;34.00;13.55;;;;;;;14.96;100.00;100662.94;5063105;28;20048;-74
2022/06/09 04:39:00;;;;;;;32.40;12.98;;;;;;;14.96;100.00;100657.38;5050163;28;20053;-73
2022/06/09 04:41:27;;;;;;;41.55;12.65;;;;;;;14.98;100.00;100671.69;5055044;28;20080;-73
2022/06/09 04:43:53;;;;;;;21.83;8.20;;;;;;;14.94;100.00;100659.03;5064040;28;20110;-73
2022/06/09 04:46:23;;;;;;;43.72;17.25;;;;;;;15.04;100.00;100669.97;5064730;28;20080;-72
2022/06/09 04:48:50;;;;;;;50.63;16.83;;;;;;;15.00;100.00;100680.41;5065745;28;20083;-73
2022/06/09 04:51:19;;;;;;;32.13;14.15;;;;;;;15.04;100.00;100683.09;5062854;28;20049;-73
2022/06/09 04:53:47;;;;;;;27.70;10.50;;;;;;;14.97;100.00;100686.81;5055005;28;20131;-72
2022/06/09 04:56:14;;;;;;;19.98;8.93;;;;;;;14.98;100.00;100688.41;5065389;28;20132;-74
2022/06/09 04:58:42;;;;;;;47.28;17.90;;;;;;;15.08;100.00;100687.41;5068194;28;20465;-72
2022/06/09 05:01:18;;;;;;;9.55;4.88;;;;;;;15.07;100.00;100685.03;5064207;28;20049;-74
2022/06/09 05:03:47;;;;;;;23.63;9.40;;;;;;;15.05;100.00;100691.03;5066556;28;20082;-71
2022/06/09 05:06:13;;;;;;;43.65;18.13;;;;;;;15.12;100.00;100701.28;5064560;28;20051;-72
2022/06/09 05:08:40;;;;;;;46.72;18.67;;;;;;;15.16;100.00;100704.78;5060468;28;20053;-75
2022/06/09 05:11:07;;;;;;;45.60;19.98;;;;;;;15.20;100.00;100703.50;5066176;28;20265;-74
2022/06/09 05:13:34;;;;;;;49.28;19.50;;;;;;;15.17;100.00;100697.97;5056697;28;20144;-73
2022/06/09 05:16:01;;;;;;;12.75;5.10;;;;;;;15.17;100.00;100709.91;5058572;28;20572;-73
2022/06/09 05:18:30;;;;;;;43.08;20.23;;;;;;;15.29;100.00;100717.63;5062134;28;20052;-73
2022/06/09 05:20:58;;;;;;;45.97;19.70;;;;;;;15.31;100.00;100714.41;5057725;28;20143;-74
2022/06/09 05:23:25;;;;;;;47.20;23.48;;;;;;;15.31;100.00;100711.63;5058485;28;20123;-74
2022/06/09 05:25:54;;;;;;;47.85;23.15;;;;;;;15.39;100.00;100729.81;5063199;28;20049;-75
2022/06/09 05:28:22;;;;;;;25.90;10.23;;;;;;;15.34;100.00;100733.06;5061276;28;20055;-75
2022/06/09 05:30:49;;;;;;;31.55;14.15;;;;;;;15.42;100.00;100732.53;5062178;28;20933;-73
2022/06/09 05:33:16;;;;;;;41.53;20.85;;;;;;;15.41;100.00;100733.75;5053358;28;20144;-74
2022/06/09 05:35:43;;;;;;;43.08;16.95;;;;;;;15.44;100.00;100743.25;5062174;28;20056;-75
2022/06/09 05:46:46;;;;;;;46.20;20.42;;;;;;;15.63;100.00;100745.25;5075459;28;20057;-77
2022/06/09 05:49:18;;;;;;;49.50;21.75;;;;;;;15.68;100.00;100753.09;5061596;28;20048;-74
2022/06/09 05:51:45;;;;;;;44.72;20.75;;;;;;;15.72;100.00;100753.03;5063643;28;20048;-74
2022/06/09 05:54:12;;;;;;;18.10;8.90;;;;;;;15.60;100.00;100754.47;5055269;28;20051;-73
2022/06/09 05:56:38;;;;;;;50.72;24.63;;;;;;;15.77;100.00;100755.31;5061989;28;20557;-74
2022/06/09 05:59:05;;;;;;;50.13;16.38;;;;;;;15.70;100.00;100761.03;5064384;28;20048;-75
2022/06/09 06:01:32;;;;;;;48.00;24.05;;;;;;;15.80;100.00;100760.03;5058199;28;20911;-74
2022/06/09 06:03:59;;;;;;;32.88;14.20;;;;;;;15.76;100.00;100764.91;5057187;28;20460;-74
2022/06/09 06:06:35;;;;;;;50.60;19.77;;;;;;;15.69;100.00;100765.81;5060793;28;20095;-74
2022/06/09 06:09:14;;;;;;;32.03;10.43;;;;;;;15.82;100.00;100777.13;5062376;28;20135;-74
2022/06/09 06:11:42;;;;;;;37.10;16.70;;;;;;;15.84;100.00;100781.06;5062930;28;20067;-75
2022/06/09 06:14:08;;;;;;;27.15;10.95;;;;;;;15.84;100.00;100785.84;5061459;28;20139;-75
2022/06/09 06:16:36;;;;;;;29.50;12.98;;;;;;;15.95;100.00;100783.59;5066741;28;20064;-74
2022/06/09 06:19:05;;;;;;;51.58;23.65;;;;;;;15.96;100.00;100779.63;5053498;28;20052;-75
2022/06/09 06:21:33;;;;;;;14.23;6.63;;;;;;;15.99;100.00;100785.09;5062110;28;20044;-76
2022/06/09 06:24:00;;;;;;;39.13;19.58;;;;;;;16.04;100.00;100779.03;5065813;28;20123;-73
2022/06/09 06:26:26;;;;;;;19.63;9.73;;;;;;;16.00;100.00;100786.66;5055756;28;20084;-73
2022/06/09 06:28:53;;;;;;;27.40;10.98;;;;;;;16.01;100.00;100793.03;5062778;28;20059;-73
2022/06/09 06:31:19;;;;;;;44.47;20.98;;;;;;;16.17;100.00;100791.09;5065508;28;20040;-72
2022/06/09 06:33:46;;;;;;;47.25;24.63;;;;;;;16.33;100.00;100807.84;5059446;28;20054;-72
2022/06/09 06:36:13;;;;;;;54.45;16.00;;;;;;;16.29;100.00;100809.94;5055385;28;20641;-70
2022/06/09 06:38:40;;;;;;;26.50;13.15;;;;;;;16.26;100.00;100810.81;5061072;28;20061;-74
2022/06/09 06:41:10;;;;;;;41.58;21.10;;;;;;;16.34;100.00;100803.84;5059145;28;20048;-74
2022/06/09 06:43:43;;;;;;;36.58;18.50;;;;;;;16.46;100.00;100819.94;5059643;28;20114;-71
2022/06/09 06:46:09;;;;;;;42.75;24.77;;;;;;;16.57;100.00;100823.25;5057349;28;20052;-72
2022/06/09 06:48:37;;;;;;;42.60;24.17;;;;;;;16.65;100.00;100826.69;5058095;28;20132;-73
2022/06/09 06:51:05;;;;;;;40.97;23.60;;;;;;;16.62;100.00;100833.13;5061719;28;20451;-73
2022/06/09 06:53:33;;;;;;;49.40;23.58;;;;;;;16.64;100.00;100847.47;5059288;28;20083;-72
2022/06/09 06:56:01;;;;;;;42.70;22.17;;;;;;;16.62;100.00;100844.31;5065794;28;20593;-72
2022/06/09 06:58:27;;;;;;;24.95;12.60;;;;;;;16.42;100.00;100846.34;5065171;28;20053;-74
2022/06/09 07:00:54;;;;;;;17.50;7.82;;;;;;;16.29;100.00;100857.41;5061419;28;20158;-72
2022/06/09 07:03:21;;;;;;;40.75;21.80;;;;;;;16.35;100.00;100855.69;5051826;28;20140;-74
2022/06/09 07:06:00;;;;;;;25.38;11.30;;;;;;;16.10;100.00;100860.25;5061441;28;20563;-75
2022/06/09 07:08:26;;;;;;;35.33;16.75;;;;;;;16.17;100.00;100857.28;5058425;28;20079;-73
2022/06/09 07:10:54;;;;;;;25.15;10.13;;;;;;;16.14;100.00;100863.72;5053498;28;20510;-72
2022/06/09 07:13:22;;;;;;;26.13;12.82;;;;;;;16.13;100.00;100871.31;5066020;28;20409;-71
2022/06/09 07:15:49;;;;;;;20.75;9.55;;;;;;;16.07;100.00;100886.22;5053343;28;20136;-72
2022/06/09 07:18:16;;;;;;;30.38;14.00;;;;;;;16.10;100.00;100876.97;5062214;28;20048;-72
2022/06/09 07:20:43;;;;;;;17.33;5.93;;;;;;;16.02;100.00;100883.91;5059712;28;20080;-72
2022/06/09 07:23:10;;;;;;;33.17;14.82;;;;;;;16.11;100.00;100881.34;5056946;28;20804;-72
2022/06/09 07:25:38;;;;;;;29.55;13.40;;;;;;;16.13;100.00;100885.28;5060900;28;20049;-72
2022/06/09 07:28:05;;;;;;;27.25;13.00;;;;;;;16.14;100.00;100886.88;5059679;28;20128;-73
2022/06/09 07:30:33;;;;;;;45.53;17.27;;;;;;;16.29;100.00;100892.91;5062697;28;20055;-73
2022/06/09 07:33:00;;;;;;;19.48;8.48;;;;;;;16.38;100.00;100901.50;5054348;28;20683;-73
2022/06/09 07:35:29;;;;;;;17.95;8.55;;;;;;;16.44;100.00;100899.81;5060314;28;20144;-72
2022/06/09 07:37:56;;;;;;;17.83;6.80;;;;;;;16.50;100.00;100904.44;5065590;28;20704;-72
2022/06/09 07:40:23;;;;;;;36.28;15.65;;;;;;;16.65;100.00;100905.69;5056769;28;20053;-72
2022/06/09 07:42:50;;;;;;;33.15;15.10;;;;;;;16.83;100.00;100910.84;5058810;28;20135;-72
2022/06/09 07:45:17;;;;;;;26.83;10.40;;;;;;;16.82;100.00;100914.88;5057850;28;20390;-73
2022/06/09 07:47:45;;;;;;;24.60;10.57;;;;;;;16.70;100.00;100912.75;5060512;28;20435;-72
2022/06/09 07:50:12;;;;;;;29.38;11.48;;;;;;;16.74;100.00;100914.25;5057877;28;20135;-72
2022/06/09 07:52:44;;;;;;;41.83;23.80;;;;;;;16.99;100.00;100920.06;5057505;28;20076;-72
2022/06/09 07:55:12;;;;;;;20.13;8.73;;;;;;;17.15;100.00;100922.06;5055413;28;20118;-72
2022/06/09 07:57:39;;;;;;;44.42;22.33;;;;;;;17.29;100.00;100930.09;5058173;28;20056;-73
2022/06/09 08:00:09;;;;;;;18.30;7.20;;;;;;;17.14;100.00;100921.28;5056832;28;20056;-73
2022/06/09 08:02:36;;;;;;;17.58;8.40;;;;;;;17.21;100.00;100909.91;5059717;28;20654;-71
2022/06/09 08:05:03;;;;;;;43.05;17.95;;;;;;;17.54;100.00;100919.88;5064199;28;20056;-74
2022/06/09 08:07:30;;;;;;;29.65;13.35;;;;;;;17.51;100.00;100922.75;5062566;28;20061;-72
2022/06/09 08:09:57;;;;;;;22.55;8.88;;;;;;;17.65;100.00;100933.59;5055579;28;20083;-72
2022/06/09 08:12:23;;;;;;;17.40;7.97;;;;;;;17.65;100.00;100930.81;5061354;28;20057;-73
2022/06/09 08:14:50;;;;;;;21.75;9.52;;;;;;;17.79;100.00;100924.81;5054193;28;20080;-71
2022/06/09 08:17:16;;;;;;;15.98;4.30;;;;;;;18.05;100.00;100936.91;5050482;28;20544;-71
2022/06/09 08:19:45;;;;;;;30.35;13.15;;;;;;;17.98;100.00;100938.66;5056998;28;20078;-72
2022/06/09 08:22:12;;;;;;;28.70;14.13;;;;;;;18.14;100.00;100934.22;5056064;28;20044;-72
2022/06/09 08:24:38;;;;;;;33.15;15.95;;;;;;;18.10;100.00;100942.75;5057527;28;20493;-72
2022/06/09 08:27:05;;;;;;;24.77;11.55;;;;;;;18.09;100.00;100954.38;5059100;28;20056;-71
2022/06/09 08:29:31;;;;;;;14.45;6.97;;;;;;;18.10;100.00;100958.75;5059207;28;20110;-73
2022/06/09 08:31:58;;;;;;;34.10;17.45;;;;;;;18.30;100.00;100950.97;5051731;28;20045;-73
2022/06/09 08:34:26;;;;;;;22.88;12.40;;;;;;;18.28;100.00;100962.63;5063291;28;20109;-73
2022/06/09 08:36:53;;;;;;;15.77;6.75;;;;;;;18.41;100.00;100969.09;5057912;28;20072;-72
2022/06/09 08:39:20;;;;;;;16.95;8.23;;;;;;;18.37;100.00;100971.22;5055369;28;20132;-72
2022/06/09 08:42:01;;;;;;;29.08;14.25;;;;;;;18.54;100.00;100969.91;5048731;28;20163;-69
2022/06/09 08:44:55;;;;;;;31.55;12.85;;;;;;;18.45;100.00;100969.75;5061310;28;20062;-71
2022/06/09 08:47:39;;;;;;;16.17;6.15;;;;;;;18.35;100.00;100976.41;5053283;28;20055;-74
2022/06/09 08:50:23;;;;;;;27.50;12.55;;;;;;;18.46;100.00;100968.50;5059399;28;20441;-71
2022/06/09 08:53:01;;;;;;;23.35;12.48;;;;;;;18.71;100.00;100977.00;5058033;28;20132;-74
2022/06/09 08:55:51;;;;;;;11.02;4.80;;;;;;;18.85;100.00;100976.56;5061914;28;20071;-73
2022/06/09 08:58:49;;;;;;;17.33;5.95;;;;;;;18.74;100.00;100964.88;5059699;28;20052;-72
2022/06/09 09:01:38;;;;;;;19.50;9.32;;;;;;;18.78;100.00;100968.38;5053994;28;20045;-72
2022/06/09 09:04:14;;;;;;;21.92;11.50;;;;;;;18.87;100.00;100965.66;5063395;28;20076;-73
2022/06/09 09:07:15;;;;;;;29.33;13.73;;;;;;;19.02;100.00;100969.59;5053955;28;20152;-73
2022/06/09 09:09:43;;;;;;;27.88;15.75;;;;;;;19.38;100.00;100974.88;5052186;28;20111;-73
2022/06/09 09:12:17;;;;;;;18.73;8.00;;;;;;;19.38;100.00;100978.50;5065792;28;20136;-74
2022/06/09 09:14:53;;;;;;;31.98;15.02;;;;;;;19.56;100.00;100969.47;5053085;28;20621;-72
2022/06/09 09:17:25;;;;;;;21.95;8.75;;;;;;;19.58;100.00;100972.59;5052347;28;20068;-72
2022/06/09 09:20:51;;;;;;;25.50;14.52;;;;;;;19.69;100.00;100979.44;5063561;28;20168;-72
2022/06/09 09:23:22;;;;;;;14.55;7.95;;;;;;;19.70;100.00;100985.81;5058211;28;20056;-71
2022/06/09 09:26:20;;;;;;;15.82;7.53;;;;;;;19.50;100.00;100988.09;5057351;28;20833;-72
2022/06/09 09:29:06;;;;;;;23.52;9.63;;;;;;;19.71;100.00;100976.16;5062412;28;20139;-72
2022/06/09 09:31:45;;;;;;;18.95;7.38;;;;;;;19.84;100.00;100980.50;5063328;28;20538;-73
2022/06/09 09:34:17;;;;;;;15.82;5.95;;;;;;;19.74;100.00;100978.84;5062288;28;20065;-70
2022/06/09 09:36:48;;;;;;;24.50;13.43;;;;;;;20.19;100.00;100989.72;5056763;28;20060;-72
2022/06/09 09:39:20;;;;;;;21.15;11.52;;;;;;;20.17;100.00;100983.78;5063280;28;20052;-75
2022/06/09 09:41:47;;;;;;;24.17;13.25;;;;;;;20.59;100.00;100979.41;5057437;28;20049;-72
2022/06/09 09:44:21;;;;;;;12.32;6.10;;;;;;;20.38;100.00;100976.59;5056742;28;20168;-72
2022/06/09 09:46:52;;;;;;;11.73;4.88;;;;;;;20.32;97.05;100990.47;5064267;28;20055;-72
2022/06/09 09:49:25;;;;;;;13.05;5.53;;;;;;;20.72;95.72;100979.31;5051624;28;20136;-72
2022/06/09 09:51:53;;;;;;;14.70;6.47;;;;;;;20.96;92.83;100986.78;5056389;28;20456;-74
2022/06/09 09:54:31;;;;;;;16.33;8.13;;;;;;;21.25;92.94;100992.06;5061451;28;20567;-71
2022/06/09 09:57:15;;;;;;;18.33;8.35;;;;;;;21.34;91.95;100995.72;5063342;28;20545;-71
2022/06/09 09:59:45;;;;;;;16.98;8.77;;;;;;;21.24;91.45;101004.59;5062499;28;20052;-71
2022/06/09 10:08:39;;;;;;;18.05;8.07;;;;;;;20.22;96.57;101019.72;5063442;28;20052;-71
2022/06/09 10:14:29;;;;;;;21.98;10.40;;;;;;;20.16;100.00;101022.34;5058194;28;20052;-73
2022/06/09 10:16:56;;;;;;;4.70;2.50;;;;;;;20.32;100.00;101019.31;5058307;28;20199;-72
2022/06/09 10:19:40;;;;;;;12.57;6.18;;;;;;;20.43;100.00;101022.53;5050377;28;20435;-72
2022/06/09 10:22:19;;;;;;;14.43;7.10;;;;;;;20.26;100.00;101029.56;5060409;28;20059;-72
2022/06/09 10:24:53;;;;;;;17.85;7.65;;;;;;;20.39;100.00;101033.13;5057593;28;20467;-72
2022/06/09 10:27:25;;;;;;;14.38;7.78;;;;;;;20.68;99.63;101029.28;5061093;28;20557;-72
2022/06/09 10:30:08;;;;;;;14.50;7.03;;;;;;;20.21;95.35;101055.47;5054240;28;20048;-74
2022/06/09 10:32:47;;;;;;;16.23;5.03;;;;;;;20.25;97.52;101044.09;5061933;28;20052;-73
2022/06/09 10:35:25;;;;;;;14.60;6.22;;;;;;;20.36;97.54;101044.50;5054432;28;20637;-73
2022/06/09 10:38:20;;;;;;;16.65;7.75;;;;;;;20.24;95.93;101050.94;5062326;28;20123;-73
2022/06/09 10:40:55;;;;;;;13.68;6.45;;;;;;;20.62;95.29;101050.78;5061217;28;20140;-72
2022/06/09 10:43:34;;;;;;;14.90;4.75;;;;;;;20.56;92.12;101053.41;5054144;28;20493;-71
2022/06/09 10:46:27;;;;;;;13.10;6.40;;;;;;;20.93;94.20;101045.97;5057970;28;20062;-73
2022/06/09 10:55:24;;;;;;;7.55;4.03;;;;;;;20.66;97.19;101074.72;5060753;28;20159;-75
2022/06/09 10:58:06;;;;;;;17.38;6.78;;;;;;;20.50;96.20;101079.72;5056307;28;20053;-73
2022/06/09 11:00:36;;;;;;;6.22;3.15;;;;;;;20.26;94.67;101076.56;5061001;28;20088;-72
2022/06/09 11:03:14;;;;;;;7.60;3.17;;;;;;;20.04;89.53;101096.16;5056723;28;20050;-72
2022/06/09 11:06:06;;;;;;;6.18;2.88;;;;;;;19.86;94.28;101101.59;5060898;28;20564;-72
2022/06/09 11:08:52;;;;;;;9.30;2.92;;;;;;;19.80;97.39;101102.59;5065715;28;20579;-71
2022/06/09 11:11:21;;;;;;;8.02;3.25;;;;;;;19.64;100.00;101106.31;5058328;28;20048;-72
2022/06/09 11:13:48;;;;;;;8.57;2.58;;;;;;;19.42;100.00;101104.63;5058142;28;20058;-73
2022/06/09 11:16:39;;;;;;;9.65;4.70;;;;;;;19.76;100.00;101105.53;5066187;28;20056;-73
2022/06/09 11:19:44;;;;;;;19.30;7.60;;;;;;;19.94;100.00;101105.72;5065084;28;20071;-71
2022/06/09 11:23:01;;;;;;;16.25;6.97;;;;;;;19.67;100.00;101116.66;5054704;28;20119;-71
2022/06/09 11:25:51;;;;;;;20.00;7.72;;;;;;;19.91;100.00;101103.81;5032949;28;20044;-71
2022/06/09 11:28:35;;;;;;;14.77;6.80;;;;;;;19.92;100.00;101102.56;5057335;28;20049;-71
2022/06/09 11:31:23;;;;;;;14.85;6.38;;;;;;;19.97;100.00;101115.25;5050012;28;20509;-74
2022/06/09 11:34:20;;;;;;;16.50;7.20;;;;;;;20.08;100.00;101110.09;5057335;28;20102;-72
2022/06/09 11:36:50;;;;;;;23.20;7.78;;;;;;;20.26;100.00;101110.28;5049174;28;20119;-72
2022/06/09 11:39:32;;;;;;;15.75;6.90;;;;;;;20.49;100.00;101109.09;5050130;28;20175;-71
2022/06/09 11:42:23;;;;;;;18.30;6.47;;;;;;;20.74;100.00;101114.59;5058837;28;20649;-74
2022/06/09 11:44:53;;;;;;;12.02;6.20;;;;;;;20.85;100.00;101118.59;5059190;28;20056;-73
2022/06/09 11:47:26;;;;;;;12.32;5.50;;;;;;;21.09;100.00;101119.72;5050036;28;20060;-72
2022/06/09 11:50:04;;;;;;;14.02;6.20;;;;;;;21.28;100.00;101124.22;5058483;28;20052;-72
2022/06/09 11:52:39;;;;;;;12.18;5.43;;;;;;;21.59;100.00;101127.81;5057660;28;20052;-73